Emslake — V2FL4 — position and weather

sailwx.info

Track history (hours):
 
Tides and Currents Weather Stations Pressure Air Temp Water Temp Dewpoint Dewpoint Depression Visibility Wind Speed Wind Dir Waves Ship Positions

Emslake

Last reported at 2014-Jul-25 06:18 UTC. Time now 2014-Jul-29 14:46 UTC.
Position N 60°25' E 019°01'.

Length 100 m; draft 5.3 m.

Type: Cargo ship. MMSI: 305712000.

Date/timePositionNaut miles runAvg speedWind from/ knotsBaromVisibWave heightAir tempDewpointWater temp
2014-Jul-25 06:18N 60°25' E 019°01'7 9.3
2014-Jul-25 05:34N 60°18' E 019°01'9 9.0
2014-Jul-25 04:33N 60°10' E 019°07'9 9.0
2014-Jul-25 03:33N 60°02' E 019°16'9 8.9
2014-Jul-25 02:34N 59°55' E 019°26'9 8.9
2014-Jul-25 01:33N 59°47' E 019°35'9 9.0
2014-Jul-25 00:33N 59°39' E 019°44'9 9.0
2014-Jul-24 23:34N 59°30' E 019°43'9 9.1
2014-Jul-24 22:33N 59°21' E 019°41'12 9.2
2014-Jul-24 21:14N 59°09' E 019°40'16 9.3
2014-Jul-24 19:33N 58°54' E 019°38'39 9.2
2014-Jul-24 15:20N 58°15' E 019°31'7 9.3
2014-Jul-24 14:32N 58°08' E 019°29'9 9.4
2014-Jul-24 13:33N 57°59' E 019°27'9 8.9
2014-Jul-24 12:33N 57°52' E 019°17'8 0.7
2014-Jul-24 01:03N 57°53' E 019°01'0 0.0
2014-Jul-23 20:12N 57°53' E 019°01'0 0.0
2014-Jul-23 19:24N 57°53' E 019°01'0 0.0
2014-Jul-23 18:30N 57°53' E 019°01'0 0.0
2014-Jul-23 17:05N 57°53' E 019°01'1 2.1
2014-Jul-23 16:34N 57°53' E 019°03'7 6.7
2014-Jul-23 15:33N 57°51' E 019°15'9 9.2
2014-Jul-23 14:33N 57°57' E 019°27'1010.4
2014-Jul-23 13:34N 58°07' E 019°31'1110.9
2014-Jul-23 12:34N 58°18' E 019°33'1211.7
2014-Jul-23 11:34N 58°30' E 019°34'1211.6
2014-Jul-23 10:34N 58°41' E 019°36'1111.3
2014-Jul-23 09:33N 58°53' E 019°37'1411.5
2014-Jul-23 08:21N 59°07' E 019°39'2411.8
2014-Jul-23 06:21N 59°30' E 019°43'1011.3
2014-Jul-23 05:25N 59°41' E 019°42'1412.4
2014-Jul-23 04:18N 59°52' E 019°27'1312.4
2014-Jul-23 03:13N 60°03' E 019°12'912.2
2014-Jul-23 02:31N 60°10' E 019°02'  
2014-Jul-17 16:30N 58°19' E 018°36'11 9.4
2014-Jul-17 15:17N 58°08' E 018°26'7 9.4
2014-Jul-17 14:34N 58°02' E 018°20'13 9.5
2014-Jul-17 13:09N 57°50' E 018°09'6 9.7
2014-Jul-17 12:33N 57°45' E 018°05'10 9.8
2014-Jul-17 11:33N 57°36' E 017°56'10 9.9
2014-Jul-17 10:33N 57°27' E 017°48'10 9.7
2014-Jul-17 09:33N 57°18' E 017°41'10 9.6
2014-Jul-17 08:34N 57°10' E 017°34'10 9.5
2014-Jul-17 07:33N 57°01' E 017°28'11 9.5
2014-Jul-17 06:24N 56°50' E 017°21'9 9.6
2014-Jul-17 05:27N 56°42' E 017°16'9 9.7
2014-Jul-17 04:32N 56°33' E 017°09'11 9.8
2014-Jul-17 03:25N 56°23' E 017°02'8 9.7
2014-Jul-17 02:33N 56°15' E 016°57'18 9.0
2014-Jul-17 00:33N 56°01' E 016°37'9 9.1
2014-Jul-16 23:34N 55°57' E 016°23'9 9.0
2014-Jul-16 22:34N 55°52' E 016°09'9 9.1
2014-Jul-16 21:33N 55°48' E 015°55'9 9.1
2014-Jul-16 20:33N 55°43' E 015°41'9 9.2
2014-Jul-16 19:33N 55°38' E 015°27'10 9.5
2014-Jul-16 18:33N 55°34' E 015°12'10 9.7
2014-Jul-16 17:33N 55°29' E 014°58'1010.0
2014-Jul-16 16:33N 55°24' E 014°42'10 9.5
2014-Jul-16 15:33N 55°17' E 014°31'10 9.5
2014-Jul-16 14:33N 55°10' E 014°20'10 9.7
2014-Jul-16 13:34N 55°02' E 014°09'10 9.6
2014-Jul-16 12:33N 54°58' E 013°54'10 9.8
2014-Jul-16 11:34N 54°54' E 013°39'10 9.8
2014-Jul-16 10:34N 54°50' E 013°23'10 9.6
2014-Jul-16 09:34N 54°46' E 013°08'9 9.4
2014-Jul-16 08:34N 54°43' E 012°53'9 9.3
2014-Jul-16 07:34N 54°38' E 012°38'1010.1
2014-Jul-16 06:33N 54°33' E 012°23'9 9.5
2014-Jul-16 05:34N 54°26' E 012°12'9 9.4
2014-Jul-16 04:34N 54°25' E 011°56'9 9.4
2014-Jul-16 03:34N 54°27' E 011°40'10 9.7
2014-Jul-16 02:34N 54°31' E 011°25'10 9.7
2014-Jul-16 01:34N 54°35' E 011°10'10 9.3
2014-Jul-16 00:32N 54°34' E 010°54'50 6.8
2014-Jul-15 17:16N 54°14' E 009°36'6 8.4
2014-Jul-15 16:33N 54°11' E 009°27'8 7.6
2014-Jul-15 15:32N 54°04' E 009°19'7 7.0
2014-Jul-15 14:33N 53°58' E 009°15'6 5.8
2014-Jul-15 13:32N 53°54' E 009°09'2 2.0
2014-Jul-15 12:33N 53°53' E 009°06'5 5.4
2014-Jul-15 11:34N 53°51' E 008°57'1111.3
2014-Jul-15 10:34N 53°56' E 008°40'1312.9
2014-Jul-15 09:33N 53°60' E 008°19'1412.5
2014-Jul-15 08:28N 53°57' E 007°56'2210.5
2014-Jul-15 06:25N 53°53' E 007°20'  
Track history (hours):
 
Tides and Currents Weather Stations Pressure Air Temp Water Temp Dewpoint Dewpoint Depression Visibility Wind Speed Wind Dir Waves Ship Positions

Emslake

Last reported at 2014-Jul-25 06:18 UTC. Time now 2014-Jul-29 14:46 UTC.
Position N 60°25' E 019°01'.

Length 100 m; draft 5.3 m.

Type: Cargo ship. MMSI: 305712000.

Date/timePositionNaut miles runAvg speedWind from/ knotsBaromVisibWave heightAir tempDewpointWater temp
2014-Jul-25 06:18N 60°25' E 019°01'7 9.3
2014-Jul-25 05:34N 60°18' E 019°01'9 9.0
2014-Jul-25 04:33N 60°10' E 019°07'9 9.0
2014-Jul-25 03:33N 60°02' E 019°16'9 8.9
2014-Jul-25 02:34N 59°55' E 019°26'9 8.9
2014-Jul-25 01:33N 59°47' E 019°35'9 9.0
2014-Jul-25 00:33N 59°39' E 019°44'9 9.0
2014-Jul-24 23:34N 59°30' E 019°43'9 9.1
2014-Jul-24 22:33N 59°21' E 019°41'12 9.2
2014-Jul-24 21:14N 59°09' E 019°40'16 9.3
2014-Jul-24 19:33N 58°54' E 019°38'39 9.2
2014-Jul-24 15:20N 58°15' E 019°31'7 9.3
2014-Jul-24 14:32N 58°08' E 019°29'9 9.4
2014-Jul-24 13:33N 57°59' E 019°27'9 8.9
2014-Jul-24 12:33N 57°52' E 019°17'8 0.7
2014-Jul-24 01:03N 57°53' E 019°01'0 0.0
2014-Jul-23 20:12N 57°53' E 019°01'0 0.0
2014-Jul-23 19:24N 57°53' E 019°01'0 0.0
2014-Jul-23 18:30N 57°53' E 019°01'0 0.0
2014-Jul-23 17:05N 57°53' E 019°01'1 2.1
2014-Jul-23 16:34N 57°53' E 019°03'7 6.7
2014-Jul-23 15:33N 57°51' E 019°15'9 9.2
2014-Jul-23 14:33N 57°57' E 019°27'1010.4
2014-Jul-23 13:34N 58°07' E 019°31'1110.9
2014-Jul-23 12:34N 58°18' E 019°33'1211.7
2014-Jul-23 11:34N 58°30' E 019°34'1211.6
2014-Jul-23 10:34N 58°41' E 019°36'1111.3
2014-Jul-23 09:33N 58°53' E 019°37'1411.5
2014-Jul-23 08:21N 59°07' E 019°39'2411.8
2014-Jul-23 06:21N 59°30' E 019°43'1011.3
2014-Jul-23 05:25N 59°41' E 019°42'1412.4
2014-Jul-23 04:18N 59°52' E 019°27'1312.4
2014-Jul-23 03:13N 60°03' E 019°12'912.2
2014-Jul-23 02:31N 60°10' E 019°02'  
2014-Jul-17 16:30N 58°19' E 018°36'11 9.4
2014-Jul-17 15:17N 58°08' E 018°26'7 9.4
2014-Jul-17 14:34N 58°02' E 018°20'13 9.5
2014-Jul-17 13:09N 57°50' E 018°09'6 9.7
2014-Jul-17 12:33N 57°45' E 018°05'10 9.8
2014-Jul-17 11:33N 57°36' E 017°56'10 9.9
2014-Jul-17 10:33N 57°27' E 017°48'10 9.7
2014-Jul-17 09:33N 57°18' E 017°41'10 9.6
2014-Jul-17 08:34N 57°10' E 017°34'10 9.5
2014-Jul-17 07:33N 57°01' E 017°28'11 9.5
2014-Jul-17 06:24N 56°50' E 017°21'9 9.6
2014-Jul-17 05:27N 56°42' E 017°16'9 9.7
2014-Jul-17 04:32N 56°33' E 017°09'11 9.8
2014-Jul-17 03:25N 56°23' E 017°02'8 9.7
2014-Jul-17 02:33N 56°15' E 016°57'18 9.0
2014-Jul-17 00:33N 56°01' E 016°37'9 9.1
2014-Jul-16 23:34N 55°57' E 016°23'9 9.0
2014-Jul-16 22:34N 55°52' E 016°09'9 9.1
2014-Jul-16 21:33N 55°48' E 015°55'9 9.1
2014-Jul-16 20:33N 55°43' E 015°41'9 9.2
2014-Jul-16 19:33N 55°38' E 015°27'10 9.5
2014-Jul-16 18:33N 55°34' E 015°12'10 9.7
2014-Jul-16 17:33N 55°29' E 014°58'1010.0
2014-Jul-16 16:33N 55°24' E 014°42'10 9.5
2014-Jul-16 15:33N 55°17' E 014°31'10 9.5
2014-Jul-16 14:33N 55°10' E 014°20'10 9.7
2014-Jul-16 13:34N 55°02' E 014°09'10 9.6
2014-Jul-16 12:33N 54°58' E 013°54'10 9.8
2014-Jul-16 11:34N 54°54' E 013°39'10 9.8
2014-Jul-16 10:34N 54°50' E 013°23'10 9.6
2014-Jul-16 09:34N 54°46' E 013°08'9 9.4
2014-Jul-16 08:34N 54°43' E 012°53'9 9.3
2014-Jul-16 07:34N 54°38' E 012°38'1010.1
2014-Jul-16 06:33N 54°33' E 012°23'9 9.5
2014-Jul-16 05:34N 54°26' E 012°12'9 9.4
2014-Jul-16 04:34N 54°25' E 011°56'9 9.4
2014-Jul-16 03:34N 54°27' E 011°40'10 9.7
2014-Jul-16 02:34N 54°31' E 011°25'10 9.7
2014-Jul-16 01:34N 54°35' E 011°10'10 9.3
2014-Jul-16 00:32N 54°34' E 010°54'50 6.8
2014-Jul-15 17:16N 54°14' E 009°36'6 8.4
2014-Jul-15 16:33N 54°11' E 009°27'8 7.6
2014-Jul-15 15:32N 54°04' E 009°19'7 7.0
2014-Jul-15 14:33N 53°58' E 009°15'6 5.8
2014-Jul-15 13:32N 53°54' E 009°09'2 2.0
2014-Jul-15 12:33N 53°53' E 009°06'5 5.4
2014-Jul-15 11:34N 53°51' E 008°57'1111.3
2014-Jul-15 10:34N 53°56' E 008°40'1312.9
2014-Jul-15 09:33N 53°60' E 008°19'1412.5
2014-Jul-15 08:28N 53°57' E 007°56'2210.5
2014-Jul-15 06:25N 53°53' E 007°20'  

Dump ship's entire track history